This is the latest recevied weather packets stored in our database for station/object AD8AK. If no packets are shown the sender has not sent any weather packets the latest 1 day(s).
| Time | Temp. | Humidity | Pressure | Rain* | Wind** | Luminosity | Snow |
|---|---|---|---|---|---|---|---|
| 1778029755 | 8.89° C | 95% | 1008.7 hPa | 1.78 mm | - | - | - |
| 1778029454 | 8.89° C | 95% | 1008.7 hPa | 0 mm | - | - | - |
| 1778029150 | 8.89° C | 95% | 1008.7 hPa | 1.27 mm | - | - | - |
| 1778028848 | 8.89° C | 95% | 1008.7 hPa | 1.27 mm | - | - | - |
| 1778028241 | 8.89° C | 95% | 1008.7 hPa | 1.78 mm | - | - | - |
| 1778027633 | 8.89° C | 95% | 1008.6 hPa | 1.78 mm | - | - | - |
| 1778024299 | 9.44° C | 94% | 1008.5 hPa | 1.78 mm | - | - | - |
| 1778023694 | 9.44° C | 94% | 1008.7 hPa | 1.27 mm | - | - | - |
| 1778020057 | 9.44° C | 94% | 1008.2 hPa | 0 mm | - | - | - |
| 1778019147 | 9.44° C | 94% | 1008.1 hPa | 0 mm | - | - | - |
| 1778018844 | 9.44° C | 94% | 1008.1 hPa | 0 mm | - | - | - |
| 1778018542 | 9.44° C | 94% | 1008.2 hPa | 0 mm | - | - | - |
| 1778015514 | 10° C | 94% | 1008 hPa | 3.05 mm | - | - | - |
| 1778013999 | 10.56° C | 93% | 1008.2 hPa | 3.05 mm | - | - | - |
| 1778011877 | 10.56° C | 92% | 1008 hPa | 1.27 mm | - | - | - |
| 1778011575 | 10.56° C | 92% | 1007.9 hPa | 0 mm | - | - | - |
| 1778010968 | 10.56° C | 92% | 1007.8 hPa | 0 mm | - | - | - |
| 1778009151 | 11.11° C | 91% | 1008.4 hPa | 3.05 mm | - | - | - |
| 1778008848 | 11.11° C | 91% | 1008.6 hPa | 6.1 mm | - | - | - |
| 1778007938 | - | - | - | 0 mm | - | - | - |
| 1778005512 | 11.11° C | 85% | 1008.1 hPa | 3.56 mm | - | - | - |
| 1778004298 | - | - | - | 0 mm | - | - | - |
| 1778003388 | - | - | - | 0 mm | - | - | - |
| 1778003085 | 12.78° C | 87% | 1008 hPa | 0 mm | - | - | - |
| 1778002478 | 12.78° C | 86% | 1008.2 hPa | 1.27 mm | - | - | - |
* Rain latest hour (hover to see other rain measurements)
** Current wind speed in m/s (hover to see current wind gust speed)